Time;durP1;ratioP1;P1;durP2;ratioP2;P2;SDS_P1;SDS_P2;PMS_P1;PMS_P2;Temp;Humidity;BMP_temperature;BMP_pressure;BME280_temperature;BME280_humidity;BME280_pressure;Samples;Min_cycle;Max_cycle;Signal;HPM_P1;HPM_P2
2021/10/19 00:00:59;;;;;;;50.80;31.45;;;;;;;5.76;72.63;101263.42;1775433;80;20869;-83
2021/10/19 00:03:27;;;;;;;48.35;32.73;;;;;;;5.76;72.57;101260.81;1775656;80;20905;-83
2021/10/19 00:05:56;;;;;;;53.50;34.88;;;;;;;5.75;72.53;101251.28;1775976;80;20940;-82
2021/10/19 00:08:23;;;;;;;54.08;35.98;;;;;;;5.76;72.51;101258.67;1775296;80;21392;-83
2021/10/19 00:10:50;;;;;;;53.23;32.58;;;;;;;5.73;72.52;101250.93;1775194;80;21141;-83
2021/10/19 00:13:19;;;;;;;52.48;32.85;;;;;;;5.70;72.54;101252.34;1775044;80;21008;-84
2021/10/19 00:15:46;;;;;;;48.28;31.00;;;;;;;5.67;72.57;101251.11;1775239;80;20861;-83
2021/10/19 00:18:13;;;;;;;52.83;32.85;;;;;;;5.62;72.65;101252.55;1775231;80;20892;-81
2021/10/19 00:20:41;;;;;;;47.25;31.10;;;;;;;5.57;72.84;101252.68;1775289;80;21492;-82
2021/10/19 00:23:08;;;;;;;51.23;30.10;;;;;;;5.55;73.07;101254.47;1775366;80;21052;-83
2021/10/19 00:25:35;;;;;;;53.83;31.05;;;;;;;5.55;73.33;101252.33;1775168;80;21477;-83
2021/10/19 00:28:01;;;;;;;54.90;31.82;;;;;;;5.56;73.54;101252.75;1775276;80;20923;-84
2021/10/19 00:30:28;;;;;;;56.53;34.92;;;;;;;5.59;73.72;101250.89;1775275;80;20964;-83
2021/10/19 00:32:55;;;;;;;54.33;34.13;;;;;;;5.61;73.88;101253.00;1775374;80;21405;-81
2021/10/19 00:35:22;;;;;;;62.73;35.98;;;;;;;5.63;73.96;101249.06;1775618;80;21472;-83
2021/10/19 00:37:49;;;;;;;64.17;38.05;;;;;;;5.65;73.97;101246.39;1775160;80;20936;-82
2021/10/19 00:40:15;;;;;;;66.82;39.08;;;;;;;5.66;73.92;101240.31;1775270;80;20856;-83
2021/10/19 00:42:42;;;;;;;59.45;37.98;;;;;;;5.63;73.96;101233.45;1775535;80;21477;-83
2021/10/19 00:45:09;;;;;;;64.80;39.18;;;;;;;5.63;74.00;101239.95;1775449;80;20952;-81
2021/10/19 00:47:40;;;;;;;70.20;38.08;;;;;;;5.61;74.13;101237.39;1775408;80;21813;-80
2021/10/19 00:50:06;;;;;;;59.30;35.58;;;;;;;5.61;74.30;101236.55;1775063;80;20916;-80
2021/10/19 00:52:33;;;;;;;62.10;34.85;;;;;;;5.59;74.44;101235.28;1775144;80;20853;-81
2021/10/19 00:55:03;;;;;;;59.08;35.25;;;;;;;5.60;74.57;101237.00;1775354;80;21003;-80
2021/10/19 00:57:28;;;;;;;64.45;35.98;;;;;;;5.61;74.60;101239.98;1775866;80;20972;-79
2021/10/19 00:59:55;;;;;;;57.62;37.75;;;;;;;5.66;74.66;101241.16;1775346;80;21128;-81
2021/10/19 01:02:21;;;;;;;56.48;36.20;;;;;;;5.72;74.57;101242.28;1775193;80;21441;-81
2021/10/19 01:04:48;;;;;;;58.42;36.70;;;;;;;5.76;74.27;101236.55;1775379;80;20987;-81
2021/10/19 01:07:15;;;;;;;54.00;36.30;;;;;;;5.80;74.02;101232.50;1775687;80;21341;-81
2021/10/19 01:09:43;;;;;;;52.13;33.80;;;;;;;5.84;73.85;101235.84;1775070;80;20931;-82
2021/10/19 01:12:10;;;;;;;53.30;33.25;;;;;;;5.87;73.67;101237.08;1775627;80;21522;-82
2021/10/19 01:14:37;;;;;;;54.65;34.18;;;;;;;5.91;73.47;101239.11;1775342;80;21370;-81
2021/10/19 01:17:05;;;;;;;58.65;31.97;;;;;;;5.94;73.38;101233.83;1775548;80;21382;-83
2021/10/19 01:19:33;;;;;;;55.65;32.35;;;;;;;5.97;73.30;101239.81;1775805;80;20924;-83
2021/10/19 01:22:02;;;;;;;45.75;29.98;;;;;;;6.02;73.22;101239.66;1776122;80;20928;-82
2021/10/19 01:24:29;;;;;;;57.03;33.15;;;;;;;6.08;73.16;101240.78;1776099;80;21805;-84
2021/10/19 01:26:56;;;;;;;52.73;33.20;;;;;;;6.14;73.16;101235.84;1776132;80;20865;-84
2021/10/19 01:29:23;;;;;;;58.05;36.13;;;;;;;6.20;72.95;101233.02;1775545;80;20923;-82
2021/10/19 01:31:53;;;;;;;58.15;36.25;;;;;;;6.25;72.72;101234.17;1775963;80;20885;-82
2021/10/19 01:34:19;;;;;;;58.55;35.70;;;;;;;6.30;72.56;101237.51;1775972;80;20889;-81
2021/10/19 01:36:46;;;;;;;56.50;34.55;;;;;;;6.34;72.35;101237.81;1778028;80;21112;-80
2021/10/19 01:39:14;;;;;;;55.78;34.95;;;;;;;6.35;72.22;101241.66;1775954;80;20853;-81
2021/10/19 01:41:42;;;;;;;46.05;32.13;;;;;;;6.35;72.16;101241.66;1775511;80;20912;-84
2021/10/19 01:44:09;;;;;;;56.35;34.80;;;;;;;6.34;72.27;101245.17;1775915;80;20963;-82
2021/10/19 01:46:36;;;;;;;51.92;30.43;;;;;;;6.32;72.45;101251.34;1775882;80;20916;-82
2021/10/19 01:49:03;;;;;;;50.65;29.75;;;;;;;6.32;72.56;101240.92;1775865;80;21158;-83
2021/10/19 01:51:30;;;;;;;53.58;30.75;;;;;;;6.35;72.61;101246.02;1775693;80;20909;-82
2021/10/19 01:53:57;;;;;;;49.25;30.50;;;;;;;6.39;72.68;101243.72;1776068;80;20837;-83
2021/10/19 01:56:24;;;;;;;50.73;31.42;;;;;;;6.43;72.63;101243.56;1775711;80;20888;-83
2021/10/19 01:58:51;;;;;;;53.63;33.05;;;;;;;6.50;72.56;101240.77;1775540;80;20992;-82
2021/10/19 02:01:18;;;;;;;48.55;33.13;;;;;;;6.57;72.42;101241.80;1775833;80;21593;-83
2021/10/19 02:03:45;;;;;;;51.00;35.17;;;;;;;6.64;72.17;101247.66;1775946;80;20853;-83
2021/10/19 02:06:11;;;;;;;61.00;36.98;;;;;;;6.69;71.95;101247.50;1775742;80;20888;-81
2021/10/19 02:08:38;;;;;;;58.28;35.80;;;;;;;6.70;71.78;101248.77;1776011;80;21034;-82
2021/10/19 02:11:05;;;;;;;52.10;33.90;;;;;;;6.73;71.68;101251.71;1775576;80;20849;-82
2021/10/19 02:13:32;;;;;;;56.30;33.23;;;;;;;6.73;71.60;101251.25;1775881;80;21765;-82
2021/10/19 02:16:00;;;;;;;60.10;35.15;;;;;;;6.74;71.58;101257.34;1775496;80;20976;-82
2021/10/19 02:18:27;;;;;;;47.88;31.95;;;;;;;6.76;71.64;101255.08;1775984;80;20876;-84
2021/10/19 02:20:54;;;;;;;54.48;31.50;;;;;;;6.79;71.68;101259.33;1775781;80;21419;-83
2021/10/19 02:23:21;;;;;;;52.50;31.35;;;;;;;6.82;71.70;101259.22;1776041;80;21018;-82
2021/10/19 02:25:49;;;;;;;50.40;32.53;;;;;;;6.85;71.79;101262.58;1775473;80;21100;-81
2021/10/19 02:28:16;;;;;;;50.60;32.13;;;;;;;6.90;71.70;101261.12;1775741;80;20845;-80
2021/10/19 02:30:43;;;;;;;49.53;30.68;;;;;;;6.94;71.54;101261.88;1775480;80;20888;-81
2021/10/19 02:33:10;;;;;;;45.90;30.40;;;;;;;6.97;71.32;101267.81;1775748;80;20900;-80
2021/10/19 02:35:36;;;;;;;47.30;29.30;;;;;;;6.98;71.04;101264.33;1775507;80;20873;-81
2021/10/19 02:38:04;;;;;;;45.08;27.50;;;;;;;7.00;70.88;101264.25;1776295;80;21087;-82
2021/10/19 02:40:31;;;;;;;46.35;28.83;;;;;;;7.00;70.71;101264.25;1776029;80;20964;-81
2021/10/19 02:42:58;;;;;;;36.33;26.93;;;;;;;7.00;70.64;101261.64;1775563;80;21476;-80
2021/10/19 02:45:25;;;;;;;40.15;26.52;;;;;;;6.98;70.62;101262.14;1776487;80;20896;-81
2021/10/19 02:47:52;;;;;;;40.12;26.17;;;;;;;6.98;70.62;101260.41;1775880;80;21015;-82
2021/10/19 02:50:19;;;;;;;45.20;28.55;;;;;;;6.99;70.69;101259.49;1775720;80;21755;-82
2021/10/19 02:52:46;;;;;;;44.20;28.75;;;;;;;7.02;70.74;101261.98;1776130;80;20877;-81
2021/10/19 02:55:13;;;;;;;46.28;29.45;;;;;;;7.06;70.72;101268.80;1775997;80;20885;-82
2021/10/19 02:57:39;;;;;;;54.18;29.82;;;;;;;7.09;70.62;101262.62;1775401;80;20964;-82
2021/10/19 03:00:08;;;;;;;47.88;30.37;;;;;;;7.11;70.52;101270.39;1775543;80;20936;-80
2021/10/19 03:02:35;;;;;;;45.85;31.45;;;;;;;7.12;70.41;101276.03;1775380;80;21389;-81
2021/10/19 03:05:03;;;;;;;44.38;29.25;;;;;;;7.11;70.33;101276.45;1775346;80;20991;-81
2021/10/19 03:07:30;;;;;;;41.37;27.48;;;;;;;7.10;70.41;101285.66;1775674;80;20884;-83
2021/10/19 03:09:57;;;;;;;38.92;26.57;;;;;;;7.09;70.54;101288.70;1775328;80;20932;-82
2021/10/19 03:12:25;;;;;;;47.35;27.55;;;;;;;7.10;70.69;101293.02;1775403;80;20865;-83
2021/10/19 03:14:52;;;;;;;46.88;28.95;;;;;;;7.14;70.83;101292.48;1775554;80;21749;-83
2021/10/19 03:17:19;;;;;;;53.85;31.57;;;;;;;7.16;70.90;101290.64;1775146;80;20968;-83
2021/10/19 03:19:46;;;;;;;48.17;29.82;;;;;;;7.20;70.96;101285.30;1775353;80;20901;-83
2021/10/19 03:22:13;;;;;;;54.63;32.65;;;;;;;7.25;70.94;101285.13;1775473;80;20963;-83
2021/10/19 03:24:39;;;;;;;53.65;32.93;;;;;;;7.29;70.91;101284.55;1775568;80;20944;-82
2021/10/19 03:27:06;;;;;;;52.00;32.60;;;;;;;7.31;70.86;101277.52;1775884;80;21716;-83
2021/10/19 03:29:33;;;;;;;53.05;34.88;;;;;;;7.32;70.84;101273.56;1776215;80;20907;-83
2021/10/19 03:32:00;;;;;;;59.53;33.65;;;;;;;7.32;70.86;101291.83;1775811;80;20948;-83
2021/10/19 03:34:27;;;;;;;49.48;31.00;;;;;;;7.32;70.88;101280.55;1776082;80;21378;-84
2021/10/19 03:36:54;;;;;;;50.58;32.10;;;;;;;7.30;71.00;101280.59;1753574;80;20897;-84
2021/10/19 03:39:23;;;;;;;50.80;32.83;;;;;;;7.29;71.10;101285.84;1775397;80;21147;-83
2021/10/19 03:41:50;;;;;;;44.83;28.23;;;;;;;7.29;71.35;101294.52;1775582;80;21050;-83
2021/10/19 03:44:17;;;;;;;56.40;33.00;;;;;;;7.29;71.52;101297.59;1775509;80;20888;-83
2021/10/19 03:46:44;;;;;;;55.92;31.82;;;;;;;7.29;71.68;101299.73;1775673;80;21011;-85
2021/10/19 03:49:10;;;;;;;49.18;30.72;;;;;;;7.30;71.83;101303.22;1775730;80;20944;-81
2021/10/19 03:51:37;;;;;;;45.98;28.10;;;;;;;7.28;71.96;101305.88;1775432;80;21554;-81
2021/10/19 03:54:04;;;;;;;46.28;28.60;;;;;;;7.28;72.05;101302.42;1775286;80;21426;-82
2021/10/19 03:56:31;;;;;;;41.45;28.90;;;;;;;7.28;72.19;101305.03;1775469;80;20892;-82
2021/10/19 03:58:58;;;;;;;42.65;26.80;;;;;;;7.28;72.28;101308.48;1779595;80;20951;-82
2021/10/19 04:01:24;;;;;;;30.27;22.32;;;;;;;7.26;72.37;101313.75;1783722;80;20881;-83
2021/10/19 04:03:51;;;;;;;34.65;22.67;;;;;;;7.25;72.60;101309.45;1783794;80;21114;-81
2021/10/19 04:06:18;;;;;;;38.88;20.82;;;;;;;7.25;72.74;101319.04;1783714;80;21414;-81
2021/10/19 04:08:45;;;;;;;32.13;19.32;;;;;;;7.23;72.93;101315.17;1783675;80;20852;-83
2021/10/19 04:11:12;;;;;;;31.23;21.15;;;;;;;7.25;73.08;101322.95;1784117;80;21477;-84
2021/10/19 04:13:38;;;;;;;28.95;19.77;;;;;;;7.27;73.25;101326.36;1783767;80;20884;-83
2021/10/19 04:16:05;;;;;;;31.20;19.35;;;;;;;7.30;73.40;101327.55;1783423;80;21127;-83
2021/10/19 04:18:34;;;;;;;33.75;20.00;;;;;;;7.32;73.46;101330.11;1783592;80;20904;-83
2021/10/19 04:21:01;;;;;;;29.35;19.52;;;;;;;7.35;73.56;101330.84;1783928;80;20908;-83
2021/10/19 04:23:28;;;;;;;38.25;21.95;;;;;;;7.39;73.53;101328.98;1783773;80;21006;-82
2021/10/19 04:25:55;;;;;;;34.40;21.50;;;;;;;7.40;73.47;101329.37;1784296;80;21422;-80
2021/10/19 04:28:24;;;;;;;28.30;19.45;;;;;;;7.39;73.42;101329.83;1783569;80;21830;-82
2021/10/19 04:30:51;;;;;;;31.37;20.52;;;;;;;7.39;73.42;101337.66;1783393;80;20963;-80
2021/10/19 04:33:18;;;;;;;34.03;23.45;;;;;;;7.40;73.47;101335.47;1783751;80;20919;-83
2021/10/19 04:35:46;;;;;;;37.15;29.10;;;;;;;7.40;73.49;101343.30;1783658;80;21032;-85
2021/10/19 04:38:13;;;;;;;32.15;22.20;;;;;;;7.39;73.51;101347.25;1783935;80;20880;-85
2021/10/19 04:40:39;;;;;;;27.48;18.77;;;;;;;7.39;73.55;101355.92;1784142;80;21122;-85
2021/10/19 04:43:06;;;;;;;26.82;18.87;;;;;;;7.38;73.59;101362.48;1784342;80;20988;-85
2021/10/19 04:45:33;;;;;;;27.13;18.65;;;;;;;7.37;73.67;101364.71;1753078;80;20923;-84
2021/10/19 04:48:04;;;;;;;25.40;17.77;;;;;;;7.39;73.74;101372.04;1783836;80;20935;-84
2021/10/19 04:50:31;;;;;;;29.00;20.02;;;;;;;7.40;73.90;101369.39;1784052;80;20959;-85
2021/10/19 04:52:57;;;;;;;25.62;19.40;;;;;;;7.45;74.05;101364.00;1784069;80;21172;-84
2021/10/19 04:55:24;;;;;;;30.32;20.52;;;;;;;7.48;73.80;101376.47;1783922;80;20923;-84
2021/10/19 04:57:53;;;;;;;26.77;19.75;;;;;;;7.51;73.92;101370.29;1783934;80;21523;-83
2021/10/19 05:00:19;;;;;;;23.87;17.02;;;;;;;7.53;73.71;101380.69;1775661;80;20991;-83
2021/10/19 05:02:49;;;;;;;25.37;18.23;;;;;;;7.53;73.54;101389.36;1775526;80;21818;-83
2021/10/19 05:05:17;;;;;;;25.95;17.55;;;;;;;7.54;73.54;101385.02;1775407;80;20992;-83
2021/10/19 05:07:44;;;;;;;18.98;15.90;;;;;;;7.54;73.59;101381.95;1775353;80;20880;-82
2021/10/19 05:12:10;;;;;;;24.82;12.33;;;;;;;7.60;73.20;101386.08;1797915;79;22269;-82
2021/10/19 05:14:37;;;;;;;15.00;12.47;;;;;;;7.56;72.88;101385.78;1758672;80;20935;-82
2021/10/19 05:17:05;;;;;;;18.45;11.80;;;;;;;7.56;72.48;101387.97;1739624;81;21126;-81
2021/10/19 05:19:32;;;;;;;15.88;11.45;;;;;;;7.54;72.34;101389.78;1739480;81;20888;-84
2021/10/19 05:21:59;;;;;;;13.70;10.38;;;;;;;7.54;72.08;101397.61;1758396;80;20897;-83
2021/10/19 05:24:26;;;;;;;16.45;12.20;;;;;;;7.53;71.95;101408.94;1758326;81;20940;-82
2021/10/19 05:26:53;;;;;;;17.55;13.48;;;;;;;7.54;71.98;101414.57;1758551;80;20935;-83
2021/10/19 05:29:20;;;;;;;16.93;10.65;;;;;;;7.52;72.13;101418.98;1758666;81;21119;-84
2021/10/19 05:31:47;;;;;;;14.43;9.75;;;;;;;7.53;72.19;101417.22;1758672;80;20892;-82
2021/10/19 05:34:16;;;;;;;11.93;8.93;;;;;;;7.58;72.23;101427.05;1759447;80;21318;-81
2021/10/19 05:36:43;;;;;;;10.60;9.20;;;;;;;7.61;72.12;101430.88;1759520;80;20881;-83
2021/10/19 05:39:11;;;;;;;12.82;8.90;;;;;;;7.65;72.03;101436.39;1759046;81;20885;-83
2021/10/19 05:41:38;;;;;;;8.38;7.33;;;;;;;7.69;71.81;101437.96;1759771;81;21060;-84
2021/10/19 05:44:07;;;;;;;9.33;6.90;;;;;;;7.67;71.66;101439.34;1760046;80;20963;-84
2021/10/19 05:46:34;;;;;;;11.00;6.83;;;;;;;7.67;71.76;101442.41;1759272;80;21469;-82
2021/10/19 05:49:01;;;;;;;4.78;4.37;;;;;;;7.66;71.57;101440.23;1760038;80;20920;-83
2021/10/19 05:51:28;;;;;;;7.12;4.78;;;;;;;7.62;71.42;101450.83;1760916;81;20924;-82
2021/10/19 05:53:55;;;;;;;6.12;4.85;;;;;;;7.53;71.58;101449.39;1760856;81;21130;-81
2021/10/19 05:56:22;;;;;;;7.92;4.40;;;;;;;7.46;71.94;101455.27;1759648;81;20932;-83
2021/10/19 05:58:49;;;;;;;5.10;3.72;;;;;;;7.41;72.40;101458.95;1758890;81;21064;-85
2021/10/19 06:01:16;;;;;;;6.03;3.50;;;;;;;7.39;72.79;101459.45;1759106;80;20994;-85
2021/10/19 06:03:43;;;;;;;4.95;4.30;;;;;;;7.41;73.10;101453.73;1758691;80;20927;-85
2021/10/19 06:06:15;;;;;;;4.37;3.77;;;;;;;7.45;73.46;101463.17;1759312;80;21113;-83
2021/10/19 06:08:42;;;;;;;6.15;4.47;;;;;;;7.52;73.78;101462.05;1758632;80;21014;-85
2021/10/19 06:11:09;;;;;;;4.72;3.92;;;;;;;7.58;73.82;101468.38;1758751;80;20912;-85
2021/10/19 06:13:36;;;;;;;5.30;4.03;;;;;;;7.67;74.13;101471.98;1759329;81;20944;-84
2021/10/19 06:16:04;;;;;;;5.10;4.00;;;;;;;7.76;74.11;101477.34;1759054;81;20881;-83
2021/10/19 06:18:32;;;;;;;3.92;3.55;;;;;;;7.83;74.20;101484.50;1758865;81;21987;-81
2021/10/19 06:20:59;;;;;;;7.58;3.33;;;;;;;7.87;74.20;101481.73;1758870;81;20920;-82
2021/10/19 06:23:26;;;;;;;4.65;3.70;;;;;;;7.94;73.94;101486.72;1758607;80;20971;-82
2021/10/19 06:25:53;;;;;;;5.22;4.72;;;;;;;7.98;73.90;101490.50;1758399;81;21409;-82
2021/10/19 06:28:19;;;;;;;7.25;4.53;;;;;;;8.03;73.68;101494.26;1758612;81;20931;-84
2021/10/19 06:30:46;;;;;;;8.85;5.17;;;;;;;8.07;73.64;101499.31;1758431;80;21125;-85
2021/10/19 06:33:13;;;;;;;7.45;5.35;;;;;;;8.09;73.47;101497.50;1758578;80;20857;-82
2021/10/19 06:35:41;;;;;;;7.58;6.70;;;;;;;8.08;73.30;101495.78;1758333;81;20956;-82
2021/10/19 06:38:09;;;;;;;10.95;5.60;;;;;;;8.09;73.34;101495.32;1758650;80;20939;-83
2021/10/19 06:40:36;;;;;;;6.08;5.42;;;;;;;8.10;73.38;101499.66;1758414;80;20940;-86
2021/10/19 06:43:05;;;;;;;8.10;6.08;;;;;;;8.10;73.16;101503.11;1758591;81;21377;-84
2021/10/19 06:45:33;;;;;;;7.95;5.92;;;;;;;8.09;73.25;101509.69;1758166;81;20853;-85
2021/10/19 06:48:00;;;;;;;9.23;5.85;;;;;;;8.10;73.46;101514.87;1758568;81;20967;-84
2021/10/19 06:50:26;;;;;;;5.97;5.10;;;;;;;8.14;73.62;101511.70;1758103;80;21019;-84
2021/10/19 06:52:55;;;;;;;8.73;6.25;;;;;;;8.22;73.78;101502.28;1758550;81;20966;-82
2021/10/19 06:55:23;;;;;;;11.78;7.05;;;;;;;8.34;73.57;101510.99;1757858;80;21178;-86
2021/10/19 06:57:50;;;;;;;9.73;7.08;;;;;;;8.45;73.43;101522.41;1758591;81;20885;-86
2021/10/19 07:00:17;;;;;;;10.50;6.78;;;;;;;8.53;73.04;101522.95;1758233;80;20979;-86
2021/10/19 07:02:45;;;;;;;10.80;7.90;;;;;;;8.57;72.55;101523.70;1758178;81;20948;-88
2021/10/19 07:05:12;;;;;;;9.70;6.87;;;;;;;8.61;72.33;101528.76;1789139;80;20867;-89
2021/10/19 07:07:41;;;;;;;9.50;8.18;;;;;;;8.64;71.89;101531.70;1790175;80;21136;-85
2021/10/19 07:10:12;;;;;;;10.88;8.45;;;;;;;8.63;71.51;101530.86;1790145;80;20915;-84
2021/10/19 07:12:41;;;;;;;8.58;6.80;;;;;;;8.62;71.33;101533.06;1787056;80;20876;-83
2021/10/19 07:15:08;;;;;;;8.38;7.40;;;;;;;8.69;71.56;101528.02;1787334;80;20947;-84
2021/10/19 07:17:35;;;;;;;18.12;7.37;;;;;;;8.85;71.40;101528.76;1787713;80;20867;-85
2021/10/19 07:20:02;;;;;;;10.72;7.58;;;;;;;9.04;70.90;101534.12;1787407;80;21126;-85
2021/10/19 07:22:31;;;;;;;6.50;5.33;;;;;;;9.13;70.04;101529.83;1787604;79;21467;-83
2021/10/19 07:24:59;;;;;;;8.18;7.33;;;;;;;9.18;69.32;101532.27;1787311;80;20872;-83
2021/10/19 07:27:31;;;;;;;8.75;6.50;;;;;;;9.22;69.12;101524.22;1787121;79;20962;-84
2021/10/19 07:30:02;;;;;;;7.45;6.60;;;;;;;9.24;68.58;101528.09;1787260;79;20927;-85
2021/10/19 07:32:28;;;;;;;8.08;6.42;;;;;;;9.25;68.38;101528.05;1787333;80;21099;-83
2021/10/19 07:34:56;;;;;;;7.20;5.95;;;;;;;9.31;68.29;101527.78;1787318;80;21432;-83
2021/10/19 07:37:23;;;;;;;9.40;5.92;;;;;;;9.39;68.27;101528.80;1787310;80;20872;-86
2021/10/19 07:39:50;;;;;;;7.22;6.33;;;;;;;9.47;67.96;101533.27;1787187;80;20919;-85
2021/10/19 07:42:17;;;;;;;8.40;6.05;;;;;;;9.56;67.59;101535.98;1787524;80;20967;-86
2021/10/19 07:44:44;;;;;;;8.45;5.70;;;;;;;9.63;67.31;101546.59;1786921;79;21129;-83
2021/10/19 07:47:11;;;;;;;8.93;5.67;;;;;;;9.92;67.70;101544.52;1758846;80;20919;-86
2021/10/19 07:49:38;;;;;;;6.28;5.20;;;;;;;10.16;66.63;101550.02;1787260;80;20879;-87
2021/10/19 07:52:05;;;;;;;7.03;4.72;;;;;;;10.46;66.02;101545.68;1787894;80;20923;-86
2021/10/19 07:54:33;;;;;;;6.37;5.08;;;;;;;10.71;64.54;101546.73;1787976;79;20871;-87
2021/10/19 07:57:00;;;;;;;7.78;5.55;;;;;;;11.09;63.81;101547.19;1788673;80;21980;-88
2021/10/19 07:59:27;;;;;;;5.87;4.90;;;;;;;11.53;62.45;101547.67;1787345;79;20950;-82
2021/10/19 08:01:53;;;;;;;5.60;3.87;;;;;;;11.94;60.28;101554.00;1787359;80;21527;-82
2021/10/19 08:04:20;;;;;;;4.72;4.20;;;;;;;12.35;59.09;101552.79;1786701;79;20883;-82
2021/10/19 08:06:47;;;;;;;7.35;4.03;;;;;;;12.93;57.31;101557.55;1787128;80;21448;-80
2021/10/19 08:09:16;;;;;;;5.28;3.70;;;;;;;13.61;55.86;101555.97;1786824;79;21045;-81
2021/10/19 08:11:43;;;;;;;5.55;3.40;;;;;;;14.41;53.77;101559.14;1786715;80;20864;-83
2021/10/19 08:14:11;;;;;;;5.70;4.30;;;;;;;15.25;52.18;101554.80;1787237;79;20832;-85
2021/10/19 08:16:39;;;;;;;5.12;3.52;;;;;;;15.95;50.17;101554.12;1787344;80;21061;-86
2021/10/19 08:19:06;;;;;;;6.35;4.15;;;;;;;16.41;48.08;101563.38;1787432;80;20934;-85
2021/10/19 08:21:33;;;;;;;3.83;3.00;;;;;;;16.73;45.79;101558.45;1787080;80;21151;-84
2021/10/19 08:24:01;;;;;;;4.05;2.90;;;;;;;17.00;45.40;101562.77;1787154;80;20982;-85
2021/10/19 08:26:29;;;;;;;5.25;3.10;;;;;;;17.43;43.29;101560.97;1788133;80;20904;-86
2021/10/19 08:28:59;;;;;;;3.42;2.72;;;;;;;17.77;42.54;101565.92;1788497;79;21439;-92
2021/10/19 08:31:26;;;;;;;3.83;2.95;;;;;;;18.15;41.59;101567.49;1788384;80;21026;-88
2021/10/19 08:33:53;;;;;;;3.85;3.45;;;;;;;18.26;40.79;101561.36;1787965;80;21128;-88
2021/10/19 08:36:20;;;;;;;5.00;2.98;;;;;;;18.13;40.81;101570.75;1788080;80;20911;-85
2021/10/19 08:38:48;;;;;;;3.40;3.00;;;;;;;18.18;41.00;101562.42;1788557;80;20951;-92
2021/10/19 08:41:16;;;;;;;5.67;3.00;;;;;;;17.92;40.39;101564.41;1788312;80;20986;-91
2021/10/19 08:43:44;;;;;;;4.65;2.60;;;;;;;17.69;40.95;101562.15;1788612;80;20863;-89
2021/10/19 08:46:12;;;;;;;4.70;2.75;;;;;;;17.46;40.50;101564.71;1788677;80;21042;-90
2021/10/19 08:48:40;;;;;;;2.92;2.15;;;;;;;17.05;40.25;101564.63;1787215;80;20832;-91
2021/10/19 08:51:08;;;;;;;2.52;1.40;;;;;;;16.66;40.43;101569.59;1786770;79;20951;-86
2021/10/19 08:53:38;;;;;;;4.00;2.17;;;;;;;16.26;38.53;101575.02;1786709;79;20934;-84
2021/10/19 08:56:06;;;;;;;1.98;1.67;;;;;;;15.93;38.98;101563.97;1787094;79;21499;-79
2021/10/19 08:58:33;;;;;;;1.60;1.50;;;;;;;15.56;39.60;101572.14;1786967;79;21140;-87
2021/10/19 09:01:08;;;;;;;2.12;1.75;;;;;;;15.39;39.79;101575.07;1787102;80;20902;-86
2021/10/19 09:03:47;;;;;;;3.90;1.50;;;;;;;15.16;39.63;101583.14;1786790;80;21575;-86
2021/10/19 09:06:14;;;;;;;1.95;1.37;;;;;;;15.27;39.80;101576.24;1786952;80;20927;-87
2021/10/19 09:08:50;;;;;;;2.22;1.55;;;;;;;15.72;39.48;101576.00;1786879;80;21345;-86
2021/10/19 09:11:17;;;;;;;2.30;1.50;;;;;;;16.34;38.76;101577.97;1785836;80;21864;-84
2021/10/19 09:13:53;;;;;;;3.37;1.05;;;;;;;16.90;36.74;101574.52;1780979;80;21496;-83
2021/10/19 09:16:43;;;;;;;3.22;1.30;;;;;;;17.01;34.68;101571.55;1781150;80;20872;-84
2021/10/19 09:19:18;;;;;;;1.65;1.20;;;;;;;16.93;34.91;101571.63;1780773;80;20860;-83
2021/10/19 09:21:51;;;;;;;4.40;1.40;;;;;;;17.03;35.11;101569.19;1781422;80;20970;-85
2021/10/19 09:24:26;;;;;;;1.82;1.17;;;;;;;17.31;35.02;101560.05;1779431;80;21517;-86
2021/10/19 09:27:02;;;;;;;2.27;1.95;;;;;;;17.33;34.32;101564.77;1781518;80;21390;-87
2021/10/19 09:29:32;;;;;;;1.87;1.35;;;;;;;17.07;33.93;101571.12;1781157;79;20924;-86
2021/10/19 09:32:00;;;;;;;3.27;1.42;;;;;;;16.70;34.98;101566.63;1781783;80;20959;-86
2021/10/19 09:34:30;;;;;;;2.87;1.75;;;;;;;16.45;35.90;101567.96;1781137;80;20900;-87
2021/10/19 09:36:57;;;;;;;2.72;1.90;;;;;;;16.29;35.43;101576.96;1781205;80;21114;-87
2021/10/19 09:39:40;;;;;;;1.42;1.12;;;;;;;16.17;35.73;101575.17;1781000;80;21386;-88
2021/10/19 09:42:11;;;;;;;2.40;1.27;;;;;;;16.41;34.95;101567.34;1780956;80;20967;-87
2021/10/19 09:44:39;;;;;;;3.42;1.17;;;;;;;16.55;35.06;101561.92;1779191;80;20943;-87
2021/10/19 09:47:06;;;;;;;2.25;1.05;;;;;;;16.60;34.69;101561.59;1702897;80;20951;-86
2021/10/19 09:49:33;;;;;;;5.40;1.30;;;;;;;16.32;34.66;101567.98;1780928;79;21835;-85
2021/10/19 09:52:00;;;;;;;1.60;1.17;;;;;;;15.98;35.35;101568.95;1781134;79;20904;-86
2021/10/19 09:54:29;;;;;;;2.10;1.42;;;;;;;15.73;35.63;101575.04;1780894;80;21401;-82
2021/10/19 09:56:58;;;;;;;3.75;1.55;;;;;;;15.97;35.79;101571.23;1780964;79;21533;-83
2021/10/19 09:59:25;;;;;;;1.30;0.95;;;;;;;16.52;35.16;101571.42;1780844;80;20844;-83
2021/10/19 10:01:52;;;;;;;1.25;1.10;;;;;;;17.14;34.32;101565.73;1781187;80;21805;-84
2021/10/19 10:04:19;;;;;;;3.77;1.35;;;;;;;17.73;33.47;101559.64;1781008;79;20864;-84
2021/10/19 10:06:48;;;;;;;3.90;1.65;;;;;;;18.07;33.46;101573.02;1781088;80;20967;-85
2021/10/19 10:09:15;;;;;;;2.25;1.12;;;;;;;18.08;32.57;101569.42;1781251;80;20923;-84
2021/10/19 10:11:42;;;;;;;2.35;1.00;;;;;;;17.83;32.35;101573.08;1784669;80;20939;-83
2021/10/19 10:14:11;;;;;;;1.32;1.00;;;;;;;17.39;32.40;101576.25;1788990;79;21129;-84
2021/10/19 10:16:49;;;;;;;1.92;1.00;;;;;;;17.07;32.42;101581.72;1788146;80;20990;-84
2021/10/19 10:19:20;;;;;;;1.42;0.90;;;;;;;17.24;32.38;101572.56;1786757;79;21524;-87
2021/10/19 10:21:50;;;;;;;1.87;1.30;;;;;;;17.63;32.23;101567.45;1787013;80;20991;-87
2021/10/19 10:24:32;;;;;;;1.70;1.20;;;;;;;18.13;32.31;101569.42;1787241;79;20879;-85
2021/10/19 10:27:12;;;;;;;7.55;1.87;;;;;;;18.27;32.14;101571.00;1786899;80;21139;-84
2021/10/19 10:29:48;;;;;;;2.62;1.80;;;;;;;18.08;31.33;101573.41;1787006;80;20919;-85
2021/10/19 10:32:27;;;;;;;3.47;2.25;;;;;;;17.34;32.31;101578.41;1787008;80;21392;-84
2021/10/19 10:35:18;;;;;;;3.52;1.77;;;;;;;16.84;32.74;101577.59;1786941;80;20891;-86
2021/10/19 10:37:55;;;;;;;2.40;1.47;;;;;;;16.85;33.03;101581.95;1786675;80;20987;-84
2021/10/19 10:40:38;;;;;;;1.75;1.60;;;;;;;16.92;33.05;101575.25;1786737;79;21412;-84
2021/10/19 10:43:24;;;;;;;2.58;1.57;;;;;;;16.69;33.31;101573.34;1786305;80;20939;-83
2021/10/19 10:46:06;;;;;;;2.30;1.80;;;;;;;16.41;33.76;101574.41;1786651;80;20904;-82
2021/10/19 10:48:35;;;;;;;1.37;1.22;;;;;;;16.10;34.31;101577.88;1786792;79;20852;-82
2021/10/19 10:51:04;;;;;;;1.30;1.15;;;;;;;15.75;34.42;101574.47;1786673;80;20868;-84
2021/10/19 10:53:40;;;;;;;3.37;1.40;;;;;;;15.59;34.33;101578.57;1786650;80;20919;-84
2021/10/19 10:56:09;;;;;;;1.80;0.93;;;;;;;15.57;33.99;101573.86;1786661;80;20927;-83
2021/10/19 10:58:37;;;;;;;2.08;1.27;;;;;;;15.45;34.14;101572.00;1786776;80;20870;-81
2021/10/19 11:01:27;;;;;;;3.65;1.60;;;;;;;15.22;34.18;101573.02;1786894;79;20871;-84
2021/10/19 11:04:09;;;;;;;2.40;1.47;;;;;;;14.99;34.71;101571.86;1786766;79;20899;-83
2021/10/19 11:06:39;;;;;;;1.75;1.50;;;;;;;14.75;35.10;101567.64;1787246;79;21687;-83
2021/10/19 11:09:12;;;;;;;2.25;1.72;;;;;;;14.65;35.44;101566.50;1786750;79;21396;-83
2021/10/19 11:11:45;;;;;;;;;;;;;;;14.62;35.60;101571.51;1789528;80;20927;-84
2021/10/19 11:14:20;;;;;;;1.62;1.17;;;;;;;14.62;35.13;101565.39;1782729;80;20109;-84
2021/10/19 11:16:52;;;;;;;2.45;1.00;;;;;;;14.49;34.91;101571.38;1783926;80;20966;-84
2021/10/19 11:19:31;;;;;;;2.87;1.02;;;;;;;14.41;35.31;101572.34;1783907;80;21309;-84
2021/10/19 11:22:05;;;;;;;1.62;0.90;;;;;;;14.23;34.87;101571.66;1783042;80;20876;-87
2021/10/19 11:24:34;;;;;;;1.02;0.50;;;;;;;14.23;34.87;101571.66;1782912;80;20884;-86
2021/10/19 11:27:02;;;;;;;2.12;1.30;;;;;;;14.13;35.38;101575.78;1783757;80;20911;-84
2021/10/19 11:29:33;;;;;;;6.37;1.10;;;;;;;14.02;35.22;101573.77;1782756;80;20923;-81